Aeroporto :
LOGIN :

Iscrizione | Disclaimer

   EN    FR    IT 

 










Sommario :    VFR   VFR Marginale   IFR   IFR Intensivo   IFR Molto Intensivo
Visibilità : 
Base nubi : 
>= 8 km
>= 3000ft
5 / 8 km
1000 / 3000 ft
1500m / 5 km
500 / 1000 ft
800 / 1500m
200 / 500 ft
< 800m
< 200 ft
Simboli :   Temporali  Nebbia  Neve Forte  Precipitazioni Forti  Vento > 20 kt
SIGMETs :   Varie  Temporali  Ghiacco  Turbolenza  Onda orograficha  Ceneri Vulcaniche






- Altitudine del aeroporto : 308 ft
- Codice IATA : POZ


EPPO - Poznan-Lawica

ULTIMO METAR :
  • 071030Z 20007KT CAVOK 20/02 Q1029

METARs OBSOLETI :
  • 071000Z 20007KT CAVOK 19/01 Q1029
  • 070930Z 24006KT 180V250 CAVOK 18/01 Q1029
  • 070900Z 21006KT 180V260 CAVOK 17/00 Q1029
  • 070830Z 24007KT 180V260 CAVOK 16/M00 Q1029
  • 070800Z 22009KT CAVOK 15/M01 Q1028

TAF TAF EPPO
Valido dal 07 a 06 ore il 08 a 06 ore UTC


070530Z 0706/0806 17005KT CAVOK
BECMG 0707/0710 27010KT
BECMG 0715/0718 36010KT
BECMG 0723/0802 09005KT



MetMap, La meteo Aeronautica in un colpo d'occhio ! - Copyright ORBIFLY Dicembre 2007 - Disclaimer

ORBIFLY MET'MAP TEAM :

Programmazione e sviluppo : Alexandra Zaïnal
Concezione : Baudouin d'Aumeries
Aiuto per la programmazione : Marc-Olivier Méhu
Supporto tecnico e logistico : Manuel Goepfert
Aiuto per la traduzione : Arnaldo La Scala

Contatto : metmap@orbifly.com




FONTI E CREDITI :

   NOAA